createdAt,value
2023-04-09T00:02:25.228Z,26.97
2023-04-09T00:04:53.825Z,27.50
2023-04-09T00:07:22.481Z,26.77
2023-04-09T00:09:51.038Z,28.33
2023-04-09T00:12:19.540Z,29.67
2023-04-09T00:14:48.048Z,32.20
2023-04-09T00:17:17.077Z,32.60
2023-04-09T00:19:45.634Z,40.93
2023-04-09T00:22:15.037Z,36.37
2023-04-09T00:24:43.602Z,38.27
2023-04-09T00:27:12.260Z,36.20
2023-04-09T00:29:41.109Z,45.67
2023-04-09T00:32:09.605Z,66.73
2023-04-09T00:34:38.955Z,56.07
2023-04-09T00:37:07.772Z,48.10
2023-04-09T00:39:36.286Z,50.57
2023-04-09T00:42:04.808Z,47.77
2023-04-09T00:44:33.400Z,52.17
2023-04-09T00:47:02.329Z,50.73
2023-04-09T00:49:30.952Z,42.07
2023-04-09T00:51:59.487Z,35.87
2023-04-09T00:54:28.419Z,30.73
2023-04-09T00:56:57.695Z,32.57
2023-04-09T00:59:26.991Z,32.10
2023-04-09T01:01:55.868Z,28.87
2023-04-09T01:04:25.910Z,28.50
2023-04-09T01:07:01.466Z,28.37
2023-04-09T01:09:37.184Z,26.93
2023-04-09T01:12:21.405Z,26.10
2023-04-09T01:15:02.320Z,27.63
2023-04-09T01:17:45.802Z,26.77
2023-04-09T01:20:32.048Z,28.83
2023-04-09T01:23:20.794Z,27.73
2023-04-09T01:26:16.188Z,28.13
2023-04-09T01:28:50.701Z,29.33
2023-04-09T01:31:21.755Z,28.03
2023-04-09T01:33:50.360Z,28.50
2023-04-09T01:36:19.104Z,27.60
2023-04-09T01:38:48.821Z,27.20
2023-04-09T01:41:21.649Z,29.70
2023-04-09T01:43:52.798Z,29.07
2023-04-09T01:46:22.606Z,27.80
2023-04-09T01:48:51.799Z,29.87
2023-04-09T01:51:20.595Z,28.53
2023-04-09T01:53:49.817Z,29.23
2023-04-09T01:56:18.432Z,28.47
2023-04-09T01:58:46.919Z,28.50
2023-04-09T02:01:24.385Z,28.17
2023-04-09T02:04:11.541Z,29.50
2023-04-09T02:07:04.710Z,29.57
2023-04-09T02:09:35.606Z,27.60
2023-04-09T02:12:07.839Z,27.90
2023-04-09T02:14:37.454Z,30.00
2023-04-09T02:17:06.237Z,29.53
2023-04-09T02:19:49.033Z,28.90
2023-04-09T02:22:18.225Z,29.67
2023-04-09T02:24:48.254Z,28.97
2023-04-09T02:27:16.942Z,31.03
2023-04-09T02:29:45.520Z,31.33
2023-04-09T02:32:14.110Z,29.90
2023-04-09T02:34:42.616Z,29.83
2023-04-09T02:37:11.167Z,30.73
2023-04-09T02:39:39.681Z,30.23
2023-04-09T02:42:08.344Z,31.33
2023-04-09T02:44:36.815Z,29.97
2023-04-09T02:47:05.433Z,30.47
2023-04-09T02:49:34.061Z,30.37
2023-04-09T02:52:02.542Z,28.63
2023-04-09T02:54:31.106Z,29.63
2023-04-09T02:57:00.962Z,29.80
2023-04-09T02:59:29.430Z,32.23
2023-04-09T03:01:58.020Z,27.90
2023-04-09T03:04:26.661Z,31.83
2023-04-09T03:06:55.210Z,29.73
2023-04-09T03:09:23.700Z,30.97
2023-04-09T03:11:52.173Z,29.30
2023-04-09T03:14:20.675Z,26.33
2023-04-09T03:16:49.174Z,25.50
2023-04-09T03:19:17.777Z,27.50
2023-04-09T03:21:46.452Z,26.57
2023-04-09T03:24:14.919Z,26.50
2023-04-09T03:26:43.561Z,26.50
2023-04-09T03:29:12.022Z,29.43
2023-04-09T03:31:40.494Z,27.77
2023-04-09T03:34:09.111Z,33.30
2023-04-09T03:36:38.304Z,33.90
2023-04-09T03:39:06.785Z,34.33
2023-04-09T03:41:35.373Z,34.87
2023-04-09T03:44:03.866Z,36.40
2023-04-09T03:46:32.604Z,32.33
2023-04-09T03:49:01.420Z,36.47
2023-04-09T03:51:29.893Z,35.77
2023-04-09T03:53:58.448Z,35.63
2023-04-09T03:56:26.928Z,36.60
2023-04-09T03:58:55.688Z,38.73
2023-04-09T04:01:24.140Z,35.43
2023-04-09T04:03:52.866Z,37.50
2023-04-09T04:06:21.640Z,35.43
2023-04-09T04:08:50.207Z,35.90
2023-04-09T04:11:18.740Z,37.87
2023-04-09T04:13:47.259Z,36.37
2023-04-09T04:16:15.829Z,37.87
2023-04-09T04:18:44.289Z,38.53
2023-04-09T04:21:18.788Z,35.27
2023-04-09T04:23:47.296Z,37.67
2023-04-09T04:26:15.804Z,36.83
2023-04-09T04:28:44.449Z,33.63
2023-04-09T04:31:13.541Z,36.27
2023-04-09T04:33:43.528Z,37.57
2023-04-09T04:36:15.552Z,37.87
2023-04-09T04:38:44.063Z,35.23
2023-04-09T04:41:12.886Z,35.87
2023-04-09T04:43:42.326Z,33.20
2023-04-09T04:46:10.931Z,34.53
2023-04-09T04:48:39.436Z,32.77
2023-04-09T04:51:07.985Z,32.37
2023-04-09T04:53:36.492Z,34.27
2023-04-09T04:56:05.129Z,33.93
2023-04-09T04:58:33.616Z,35.30
2023-04-09T05:01:02.222Z,34.13
2023-04-09T05:03:30.759Z,33.37
2023-04-09T05:05:59.362Z,36.47
2023-04-09T05:08:28.032Z,34.83
2023-04-09T05:10:56.835Z,35.07
2023-04-09T05:13:25.968Z,36.13
2023-04-09T05:15:54.522Z,36.00
2023-04-09T05:18:23.027Z,33.47
2023-04-09T05:20:51.600Z,36.10
2023-04-09T05:23:27.704Z,34.73
2023-04-09T05:25:56.176Z,33.30
2023-04-09T05:28:24.751Z,34.63
2023-04-09T05:30:53.330Z,35.77
2023-04-09T05:33:21.887Z,34.30
2023-04-09T05:35:50.492Z,31.73
2023-04-09T05:38:18.945Z,34.53
2023-04-09T05:40:49.025Z,33.57
2023-04-09T05:43:17.399Z,33.73
2023-04-09T05:45:45.888Z,31.63
2023-04-09T05:48:14.361Z,29.20
2023-04-09T05:50:54.116Z,31.33
2023-04-09T05:53:24.206Z,31.90
2023-04-09T05:55:52.660Z,31.07
2023-04-09T05:58:22.165Z,29.80
2023-04-09T06:00:51.753Z,31.47
2023-04-09T06:03:20.885Z,32.67
2023-04-09T06:05:49.387Z,28.70
2023-04-09T06:08:17.987Z,31.87
2023-04-09T06:10:46.536Z,31.60
2023-04-09T06:13:14.977Z,30.70
2023-04-09T06:15:43.602Z,30.87
2023-04-09T06:18:11.851Z,29.90
2023-04-09T06:20:40.477Z,30.90
2023-04-09T06:23:09.087Z,29.30
2023-04-09T06:25:37.774Z,30.03
2023-04-09T06:28:06.696Z,29.47
2023-04-09T06:30:37.034Z,28.73
2023-04-09T06:33:05.392Z,26.30
2023-04-09T06:35:33.924Z,26.57
2023-04-09T06:38:02.540Z,26.57
2023-04-09T06:40:30.948Z,26.73
2023-04-09T06:42:59.090Z,26.73
2023-04-09T06:45:27.705Z,27.23
2023-04-09T06:47:56.937Z,27.60
2023-04-09T06:50:25.132Z,27.77
2023-04-09T06:52:54.022Z,27.37
2023-04-09T06:55:22.647Z,28.23
2023-04-09T06:57:51.251Z,26.43
2023-04-09T07:00:19.791Z,27.77
2023-04-09T07:02:48.065Z,26.80
2023-04-09T07:05:16.850Z,25.23
2023-04-09T07:07:45.508Z,27.47
2023-04-09T07:10:13.645Z,27.63
2023-04-09T07:12:42.113Z,25.97
2023-04-09T07:15:10.842Z,27.50
2023-04-09T07:17:39.450Z,24.23
2023-04-09T07:20:08.303Z,26.30
2023-04-09T07:22:37.706Z,25.07
2023-04-09T07:25:06.481Z,25.30
2023-04-09T07:27:34.691Z,24.23
2023-04-09T07:30:03.378Z,23.77
2023-04-09T07:32:31.592Z,22.83
2023-04-09T07:35:00.704Z,22.70
2023-04-09T07:37:29.298Z,22.53
2023-04-09T07:39:57.919Z,21.50
2023-04-09T07:42:27.334Z,20.60
2023-04-09T07:44:56.620Z,22.07
2023-04-09T07:47:25.458Z,20.87
2023-04-09T07:49:53.975Z,20.73
2023-04-09T07:52:22.516Z,23.00
2023-04-09T07:54:51.259Z,22.53
2023-04-09T07:57:19.722Z,22.33
2023-04-09T07:59:47.932Z,23.43
2023-04-09T08:02:16.166Z,22.03
2023-04-09T08:04:44.533Z,24.00
2023-04-09T08:07:12.742Z,22.20
2023-04-09T08:09:41.203Z,20.60
2023-04-09T08:12:09.644Z,20.77
2023-04-09T08:14:38.135Z,21.20
2023-04-09T08:17:06.321Z,20.83
2023-04-09T08:19:34.831Z,19.60
2023-04-09T08:22:03.381Z,18.53
2023-04-09T08:24:32.433Z,20.33
2023-04-09T08:27:01.875Z,20.20
2023-04-09T08:29:32.123Z,20.27
2023-04-09T08:32:00.729Z,20.37
2023-04-09T08:34:29.360Z,19.87
2023-04-09T08:36:57.837Z,18.03
2023-04-09T08:39:26.198Z,20.00
2023-04-09T08:41:54.754Z,20.60
2023-04-09T08:44:23.269Z,21.20
2023-04-09T08:46:52.625Z,19.30
2023-04-09T08:49:21.664Z,21.07
2023-04-09T08:51:50.531Z,18.80
2023-04-09T08:54:20.387Z,19.83
2023-04-09T08:56:49.114Z,19.60
2023-04-09T08:59:19.552Z,19.47
2023-04-09T09:01:52.759Z,21.27
2023-04-09T09:04:21.858Z,20.70
2023-04-09T09:06:50.476Z,20.43
2023-04-09T09:09:19.938Z,19.63
2023-04-09T09:11:52.106Z,20.10
2023-04-09T09:14:21.363Z,18.50
2023-04-09T09:16:58.708Z,19.90
2023-04-09T09:19:26.953Z,20.40
2023-04-09T09:21:59.913Z,19.50
2023-04-09T09:24:28.567Z,19.87
2023-04-09T09:26:57.487Z,19.70
2023-04-09T09:29:26.358Z,19.63
2023-04-09T09:31:57.144Z,20.13
2023-04-09T09:34:26.570Z,19.00
2023-04-09T09:36:54.904Z,19.37
2023-04-09T09:39:23.380Z,18.33
2023-04-09T09:42:09.448Z,19.63
2023-04-09T09:44:37.718Z,17.17
2023-04-09T09:47:06.490Z,18.60
2023-04-09T09:49:35.127Z,19.47
2023-04-09T09:52:08.093Z,20.70
2023-04-09T09:54:44.343Z,20.83
2023-04-09T09:57:14.902Z,19.47
2023-04-09T10:00:05.375Z,18.57
2023-04-09T10:02:42.214Z,18.73
2023-04-09T10:05:11.126Z,18.40
2023-04-09T10:07:40.344Z,18.63
2023-04-09T10:10:09.802Z,16.53
2023-04-09T10:12:38.370Z,17.93
2023-04-09T10:15:07.475Z,17.50
2023-04-09T10:17:36.909Z,18.00
2023-04-09T10:20:49.453Z,21.57
2023-04-09T10:23:29.279Z,18.07
2023-04-09T10:25:57.828Z,17.93
2023-04-09T10:28:25.945Z,17.20
2023-04-09T10:30:55.507Z,16.90
2023-04-09T10:33:28.189Z,14.87
2023-04-09T10:36:12.232Z,23.33
2023-04-09T10:38:48.765Z,16.17
2023-04-09T10:41:30.834Z,15.03
2023-04-09T10:43:59.453Z,14.27
2023-04-09T10:46:31.753Z,15.87
2023-04-09T10:49:42.813Z,14.83
2023-04-09T10:52:14.001Z,14.80
2023-04-09T10:54:45.856Z,14.27
2023-04-09T10:57:24.727Z,14.70
2023-04-09T10:59:56.022Z,12.97
2023-04-09T11:02:30.306Z,12.67
2023-04-09T11:05:27.186Z,12.00
2023-04-09T11:08:13.351Z,14.03
2023-04-09T11:10:49.721Z,13.13
2023-04-09T11:13:21.931Z,15.07
2023-04-09T11:15:50.647Z,14.00
2023-04-09T11:18:28.345Z,13.30
2023-04-09T11:21:03.202Z,13.37
2023-04-09T11:23:33.570Z,14.60
2023-04-09T11:26:02.986Z,14.17
2023-04-09T11:28:31.661Z,14.67
2023-04-09T11:31:00.261Z,15.33
2023-04-09T11:33:40.506Z,14.70
2023-04-09T11:36:09.861Z,14.80
2023-04-09T11:38:39.259Z,15.47
2023-04-09T11:41:12.850Z,13.97
2023-04-09T11:43:41.224Z,14.07
2023-04-09T11:46:10.092Z,15.07
2023-04-09T11:48:38.776Z,13.47
2023-04-09T11:51:07.639Z,13.70
2023-04-09T11:53:38.981Z,14.33
2023-04-09T11:56:07.832Z,14.23
2023-04-09T11:58:37.684Z,14.03
2023-04-09T12:01:06.369Z,14.37
2023-04-09T12:03:37.715Z,15.60
2023-04-09T12:06:09.422Z,17.83
2023-04-09T12:08:38.384Z,17.47
2023-04-09T12:11:16.048Z,16.70
2023-04-09T12:13:44.834Z,16.57
2023-04-09T12:16:15.135Z,17.50
2023-04-09T12:18:43.772Z,18.33
2023-04-09T12:21:11.939Z,16.03
2023-04-09T12:23:40.092Z,17.53
2023-04-09T12:26:08.578Z,17.47
2023-04-09T12:28:37.038Z,17.07
2023-04-09T12:31:06.107Z,18.27
2023-04-09T12:33:34.215Z,17.50
2023-04-09T12:36:02.812Z,17.60
2023-04-09T12:38:31.209Z,16.67
2023-04-09T12:40:59.736Z,16.97
2023-04-09T12:43:28.296Z,15.83
2023-04-09T12:45:56.408Z,15.87
2023-04-09T12:48:24.603Z,17.10
2023-04-09T12:50:53.128Z,17.47
2023-04-09T12:53:21.267Z,16.53
2023-04-09T12:55:49.790Z,18.03
2023-04-09T12:58:18.300Z,15.00
2023-04-09T13:00:47.014Z,16.20
2023-04-09T13:03:16.957Z,15.63
2023-04-09T13:05:45.457Z,16.43
2023-04-09T13:08:14.139Z,15.60
2023-04-09T13:10:43.036Z,14.70
2023-04-09T13:13:13.099Z,16.97
2023-04-09T13:15:45.022Z,15.70
2023-04-09T13:18:14.660Z,16.10
2023-04-09T13:20:43.213Z,15.03
2023-04-09T13:23:11.814Z,15.37
2023-04-09T13:25:40.411Z,15.57
2023-04-09T13:28:09.013Z,16.70
2023-04-09T13:30:37.756Z,15.43
2023-04-09T13:33:05.906Z,15.27
2023-04-09T13:35:34.587Z,15.17
2023-04-09T13:38:03.151Z,15.27
2023-04-09T13:40:31.830Z,15.63
2023-04-09T13:43:03.203Z,15.57
2023-04-09T13:45:31.751Z,15.93
2023-04-09T13:48:01.109Z,15.43
2023-04-09T13:50:30.466Z,15.43
2023-04-09T13:53:03.201Z,15.27
2023-04-09T13:55:31.748Z,14.33
2023-04-09T13:58:00.469Z,14.50
2023-04-09T14:00:29.088Z,15.17
2023-04-09T14:02:57.765Z,14.80
2023-04-09T14:05:26.495Z,14.80
2023-04-09T14:07:55.147Z,15.00
2023-04-09T14:10:23.597Z,15.30
2023-04-09T14:12:52.157Z,14.63
2023-04-09T14:15:20.505Z,13.90
2023-04-09T14:17:49.157Z,11.67
2023-04-09T14:20:19.995Z,13.67
2023-04-09T14:22:49.586Z,14.17
2023-04-09T14:25:20.507Z,14.43
2023-04-09T14:27:48.633Z,12.37
2023-04-09T14:30:16.981Z,13.40
2023-04-09T14:32:45.549Z,12.30
2023-04-09T14:35:14.056Z,12.63
2023-04-09T14:37:42.536Z,11.47
2023-04-09T14:40:11.143Z,13.40
2023-04-09T14:42:42.829Z,12.77
2023-04-09T14:45:11.887Z,12.50
2023-04-09T14:47:40.724Z,11.77
2023-04-09T14:50:10.253Z,12.73
2023-04-09T14:52:38.749Z,11.77
2023-04-09T14:55:12.196Z,12.07
2023-04-09T14:57:42.034Z,11.10
2023-04-09T15:00:12.709Z,12.97
2023-04-09T15:02:41.739Z,11.20
2023-04-09T15:05:12.648Z,11.23
2023-04-09T15:07:41.704Z,12.40
2023-04-09T15:10:10.669Z,11.57
2023-04-09T15:12:39.224Z,10.97
2023-04-09T15:15:10.398Z,11.00
2023-04-09T15:17:38.934Z,11.37
2023-04-09T15:20:09.704Z,11.43
2023-04-09T15:22:38.177Z,11.77
2023-04-09T15:25:07.199Z,10.30
2023-04-09T15:27:35.485Z,10.00
2023-04-09T15:30:04.139Z,9.57
2023-04-09T15:32:32.865Z,11.07
2023-04-09T15:35:01.475Z,9.50
2023-04-09T15:37:30.012Z,9.97
2023-04-09T15:39:58.626Z,9.57
2023-04-09T15:42:27.188Z,8.97
2023-04-09T15:44:55.928Z,9.33
2023-04-09T15:47:24.526Z,8.80
2023-04-09T15:49:53.110Z,8.93
2023-04-09T15:52:21.747Z,9.27
2023-04-09T15:54:50.427Z,8.83
2023-04-09T15:57:19.477Z,8.77
2023-04-09T15:59:51.981Z,7.90
2023-04-09T16:02:21.146Z,7.70
2023-04-09T16:04:50.285Z,8.30
2023-04-09T16:07:19.037Z,7.73
2023-04-09T16:09:48.444Z,6.67
2023-04-09T16:12:16.980Z,6.87
2023-04-09T16:14:45.801Z,6.50
2023-04-09T16:17:14.301Z,6.80
2023-04-09T16:19:44.558Z,6.60
2023-04-09T16:22:15.533Z,7.03
2023-04-09T16:24:47.103Z,7.57
2023-04-09T16:27:16.849Z,6.73
2023-04-09T16:29:46.487Z,6.97
2023-04-09T16:32:15.204Z,6.27
2023-04-09T16:34:43.730Z,7.67
2023-04-09T16:37:14.983Z,9.10
2023-04-09T16:39:43.588Z,10.03
2023-04-09T16:42:12.335Z,8.77
2023-04-09T16:44:40.780Z,9.40
2023-04-09T16:47:11.873Z,9.03
2023-04-09T16:49:40.352Z,9.50
2023-04-09T16:52:08.951Z,9.47
2023-04-09T16:54:37.669Z,9.20
2023-04-09T16:57:06.219Z,9.73
2023-04-09T16:59:34.548Z,10.07
2023-04-09T17:02:03.751Z,9.73
2023-04-09T17:04:34.503Z,10.77
2023-04-09T17:07:03.645Z,10.63
2023-04-09T17:09:34.751Z,10.57
2023-04-09T17:12:05.883Z,10.93
2023-04-09T17:14:34.758Z,10.53
2023-04-09T17:17:03.710Z,11.53
2023-04-09T17:19:32.283Z,10.87
2023-04-09T17:22:01.348Z,10.33
2023-04-09T17:24:29.964Z,11.90
2023-04-09T17:26:58.777Z,11.17
2023-04-09T17:29:26.967Z,11.13
2023-04-09T17:31:56.127Z,13.13
2023-04-09T17:34:25.415Z,12.87
2023-04-09T17:37:00.001Z,14.57
2023-04-09T17:39:29.417Z,13.77
2023-04-09T17:41:58.399Z,14.93
2023-04-09T17:44:27.461Z,13.60
2023-04-09T17:46:56.272Z,15.93
2023-04-09T17:49:24.991Z,13.80
2023-04-09T17:51:54.522Z,13.23
2023-04-09T17:54:23.278Z,12.73
2023-04-09T17:56:52.298Z,12.07
2023-04-09T17:59:20.902Z,13.30
2023-04-09T18:01:50.557Z,13.20
2023-04-09T18:04:19.504Z,13.50
2023-04-09T18:06:48.403Z,13.90
2023-04-09T18:09:16.580Z,14.60
2023-04-09T18:11:45.272Z,14.93
2023-04-09T18:14:14.142Z,13.83
2023-04-09T18:16:42.721Z,14.60
2023-04-09T18:19:12.705Z,14.23
2023-04-09T18:21:41.784Z,13.70
2023-04-09T18:24:10.420Z,14.80
2023-04-09T18:26:39.024Z,14.50
2023-04-09T18:29:08.470Z,15.47
2023-04-09T18:31:37.500Z,15.70
2023-04-09T18:34:06.236Z,15.87
2023-04-09T18:36:34.924Z,14.43
2023-04-09T18:39:04.782Z,14.33
2023-04-09T18:41:33.309Z,16.67
2023-04-09T18:44:01.867Z,17.03
2023-04-09T18:46:30.436Z,16.40
2023-04-09T18:48:59.377Z,15.93
2023-04-09T18:51:28.343Z,16.83
2023-04-09T18:53:56.984Z,16.47
2023-04-09T18:56:25.679Z,17.07
2023-04-09T18:58:54.441Z,18.10
2023-04-09T19:01:23.263Z,20.70
2023-04-09T19:03:53.854Z,22.13
2023-04-09T19:06:23.376Z,19.83
2023-04-09T19:08:57.188Z,21.10
2023-04-09T19:11:26.473Z,22.17
2023-04-09T19:13:55.336Z,20.63
2023-04-09T19:16:24.169Z,16.80
2023-04-09T19:18:53.064Z,18.13
2023-04-09T19:21:21.384Z,16.60
2023-04-09T19:23:50.318Z,16.97
2023-04-09T19:26:19.417Z,15.80
2023-04-09T19:28:48.109Z,16.37
2023-04-09T19:31:17.205Z,18.83
2023-04-09T19:33:45.844Z,20.63
2023-04-09T19:36:14.583Z,25.27
2023-04-09T19:38:43.136Z,20.57
2023-04-09T19:41:12.048Z,19.97
2023-04-09T19:43:41.962Z,21.47
2023-04-09T19:46:10.727Z,22.97
2023-04-09T19:48:41.110Z,21.77
2023-04-09T19:51:09.618Z,24.23
2023-04-09T19:53:38.478Z,25.33
2023-04-09T19:56:07.816Z,24.03
2023-04-09T19:58:36.323Z,25.23
2023-04-09T20:01:04.971Z,24.40
2023-04-09T20:03:34.023Z,25.03
2023-04-09T20:06:10.141Z,25.13
2023-04-09T20:08:39.209Z,27.60
2023-04-09T20:11:08.092Z,27.43
2023-04-09T20:13:36.288Z,26.83
2023-04-09T20:16:07.725Z,30.13
2023-04-09T20:18:36.656Z,30.23
2023-04-09T20:21:06.755Z,28.70
2023-04-09T20:23:35.457Z,28.73
2023-04-09T20:26:03.971Z,28.20
2023-04-09T20:28:34.093Z,28.10
2023-04-09T20:31:04.972Z,26.90
2023-04-09T20:33:33.495Z,29.23
2023-04-09T20:36:02.549Z,29.87
2023-04-09T20:38:31.886Z,31.73
2023-04-09T20:41:00.405Z,29.60
2023-04-09T20:43:28.889Z,27.63
2023-04-09T20:45:57.630Z,26.63
2023-04-09T20:48:25.929Z,28.37
2023-04-09T20:50:54.536Z,27.17
2023-04-09T20:53:24.367Z,25.47
2023-04-09T20:55:53.423Z,23.00
2023-04-09T20:58:21.941Z,22.83
2023-04-09T21:00:50.858Z,25.47
2023-04-09T21:03:19.546Z,26.03
2023-04-09T21:05:48.324Z,26.50
2023-04-09T21:08:16.959Z,25.77
2023-04-09T21:10:45.571Z,27.30
2023-04-09T21:13:14.149Z,28.47
2023-04-09T21:15:42.671Z,30.70
2023-04-09T21:18:11.242Z,33.40
2023-04-09T21:20:45.544Z,30.73
2023-04-09T21:23:14.335Z,31.20
2023-04-09T21:25:43.451Z,31.70
2023-04-09T21:28:12.231Z,33.33
2023-04-09T21:30:41.203Z,30.67
2023-04-09T21:33:10.614Z,33.13
2023-04-09T21:35:39.500Z,32.57
2023-04-09T21:38:08.077Z,32.40
2023-04-09T21:40:36.698Z,31.83
2023-04-09T21:43:05.323Z,29.60
2023-04-09T21:45:33.961Z,29.13
2023-04-09T21:48:03.043Z,29.50
2023-04-09T21:50:33.262Z,29.37
2023-04-09T21:53:03.074Z,27.83
2023-04-09T21:55:31.880Z,27.43
2023-04-09T21:58:00.507Z,26.30
2023-04-09T22:00:29.523Z,27.43
2023-04-09T22:03:01.331Z,27.53
2023-04-09T22:05:30.598Z,31.17
2023-04-09T22:07:59.205Z,32.30
2023-04-09T22:10:28.543Z,34.43
2023-04-09T22:12:57.066Z,34.43
2023-04-09T22:15:25.924Z,35.50
2023-04-09T22:17:54.469Z,33.33
2023-04-09T22:20:24.509Z,38.23
2023-04-09T22:22:54.452Z,37.23
2023-04-09T22:25:23.262Z,36.83
2023-04-09T22:27:53.522Z,34.73
2023-04-09T22:30:23.779Z,34.80
2023-04-09T22:32:52.610Z,33.80
2023-04-09T22:35:21.230Z,34.70
2023-04-09T22:37:49.827Z,35.60
2023-04-09T22:40:18.183Z,32.63
2023-04-09T22:42:48.443Z,31.77
2023-04-09T22:45:16.966Z,34.17
2023-04-09T22:47:45.544Z,35.07
2023-04-09T22:50:14.115Z,35.07
2023-04-09T22:52:42.574Z,35.50
2023-04-09T22:55:11.450Z,35.37
2023-04-09T22:57:42.883Z,37.40
2023-04-09T23:00:11.591Z,34.73
2023-04-09T23:02:40.586Z,35.93
2023-04-09T23:05:10.802Z,34.20
2023-04-09T23:07:39.359Z,33.40
2023-04-09T23:10:08.597Z,30.63
2023-04-09T23:12:37.349Z,32.07
2023-04-09T23:15:06.566Z,33.43
2023-04-09T23:17:35.177Z,32.80
2023-04-09T23:20:04.159Z,33.00
2023-04-09T23:22:32.894Z,33.07
2023-04-09T23:25:01.565Z,31.13
2023-04-09T23:27:30.052Z,30.30
2023-04-09T23:29:58.715Z,30.93
2023-04-09T23:32:27.248Z,29.73
2023-04-09T23:34:57.252Z,32.77
2023-04-09T23:37:25.970Z,32.10
2023-04-09T23:39:54.663Z,32.90
2023-04-09T23:42:22.848Z,33.20
2023-04-09T23:44:51.813Z,33.73
2023-04-09T23:47:21.060Z,34.37
2023-04-09T23:49:50.036Z,33.27
2023-04-09T23:52:18.836Z,35.00
2023-04-09T23:54:51.408Z,33.43
2023-04-09T23:57:19.884Z,32.87
2023-04-09T23:59:49.315Z,32.13
